Wild Rose, WI (54984)

4:41 PM CST on February 24, 2017 (GMT -0600)
Wautoma | | Change Station
Active Advisory: Winter Weather Advisory Active Notice: Public Information Statement

Elev 856 ft 44.04 °N, 89.30 °W | Updated 45 minutes ago

Overcast
Overcast
27 °F
Feels Like 16 °F
N
14
Wind Variable Wind from North
Gusts 17 mph

Today
High -- | Low -- °F
--% Chance of Precip.
Yesterday
High -- | Low -- °F
Precip. -- in
Pressure 29.68 in
Visibility 3.0 miles
Clouds Overcast 900 ft
Windchill 16 °F
Dew Point 24 °F
Humidity 89%
Rainfall 0.14 in
Snow Depth Not available.
6:41 AM 5:39 PM
Waning Crescent, 3% visible
METAR KY50 242156Z AUTO 01012G15KT 3SM -FZRA BR OVC009 M03/M04 A2960 RMK AO2 FZRAB26SNB11E45 CIG 007V013 SLP051 P0000 T10281044
Pressure 29.68 in
Visibility 3.0 miles
Clouds Overcast 900 ft
Windchill 16 °F
Dew Point 24 °F
Humidity 89%
Rainfall 0.14 in
Snow Depth Not available.
6:41 AM 5:39 PM
Waning Crescent, 3% visible
METAR KY50 242156Z AUTO 01012G15KT 3SM -FZRA BR OVC009 M03/M04 A2960 RMK AO2 FZRAB26SNB11E45 CIG 007V013 SLP051 P0000 T10281044

Get Your Daily Forecast Email!

Thanks for signing up!

Be on the lookout for a verification email in your inbox.

You'll start receiving the daily forecast at 8 AM.

×

10-Day Weather Forecast

Almanac

Astronomy

Feb. 24, 2017 Rise Set
Actual Time
Civil Twilight
Nautical Twilight
Astronomical Twilight
Moon
Length of Visible Light
Length of Day
Tomorrow will be .
, % of the Moon is Illuminated

Today's Extremes

State Highs State Lows

Community

WunderPhotos

Upload Photos

1,962,540 photos uploaded!

WunderBlog® & News

Nearby

Air Quality

  Air Quality AQ Index Pollutant
Not available.

Snow Depth

Station Depth Elevation

Earthquake Activity

City Distance Mag. Time & Date
Minimum magnitude displayed is 2.5.

Coastal Water Temperatures

Place Temperature

Stations

Nearby Weather Stations

Station Location Temp. Windchill Dew Point Humidity Wind Precip. Elev Updated Type
                   

Watches & Warnings

Winter Weather Advisory
Issued: 3:15 PM CST Feb. 24, 2017 – National Weather Service

... Winter Weather Advisory remains in effect until 6 am CST
Saturday...

* a wintry mix of drizzle, freezing drizzle and snow will
gradually transition to all snow this evening. The snow is
expected to linger through Saturday morning before diminishing.

* Additional snow accumulation of 1 to 2 inches is expected. Minor
icing is possible as well.

* Hazardous travel is expected through tonight. The combination of
snow and blustery north to northwest winds will create some
blowing and drifting of the snow.

Precautionary/preparedness actions...

Winter Weather Advisory means that periods of snow or freezing
drizzle will cause travel difficulties. Be prepared for slippery
roads and limited visibilities, and use caution while driving. The
latest Wisconsin Road conditions can be obtained by calling 511.



AK